Terminal Aerodrome Forecast
Issued by NWS

Home | Current Version | Previous Version | Text Only | Print | Product List | Glossary On
Versions: 1 2 3 4 5 6 7 8 9 10 11 12 13 14 15 16 17 18 19
000
FTUS42 KFFC 271130
TAFPDK
TAF
KPDK 271130Z 2712/2812 16004KT P6SM SCT070 BKN250
     FM271500 15006KT P6SM BKN050
     FM272300 13004KT P6SM FEW050 SCT250=

USA.gov is the U.S. government's official web portal to all federal, state and local government web resources and services.